createdAt,value
2022-12-31T00:01:28.080Z,10.93
2022-12-31T00:03:55.588Z,12.80
2022-12-31T00:06:33.457Z,10.73
2022-12-31T00:09:03.258Z,11.25
2022-12-31T00:11:30.987Z,14.00
2022-12-31T00:13:58.785Z,12.02
2022-12-31T00:16:28.430Z,11.25
2022-12-31T00:18:57.602Z,9.93
2022-12-31T00:21:25.896Z,11.50
2022-12-31T00:23:53.267Z,12.85
2022-12-31T00:26:21.646Z,11.32
2022-12-31T00:28:49.175Z,10.05
2022-12-31T00:31:20.670Z,11.70
2022-12-31T00:33:48.351Z,12.93
2022-12-31T00:36:18.083Z,14.30
2022-12-31T00:38:46.635Z,10.50
2022-12-31T00:41:15.608Z,10.98
2022-12-31T00:43:43.064Z,11.65
2022-12-31T00:46:10.729Z,9.10
2022-12-31T00:48:37.955Z,9.82
2022-12-31T00:51:06.239Z,12.55
2022-12-31T00:53:33.582Z,12.40
2022-12-31T00:56:05.628Z,10.95
2022-12-31T00:58:34.476Z,13.00
2022-12-31T01:01:14.427Z,13.52
2022-12-31T01:03:41.693Z,10.85
2022-12-31T01:06:09.096Z,9.43
2022-12-31T01:08:36.573Z,9.52
2022-12-31T01:11:19.270Z,15.10
2022-12-31T01:13:53.549Z,9.40
2022-12-31T01:16:24.795Z,11.52
2022-12-31T01:18:51.958Z,11.13
2022-12-31T01:21:19.878Z,10.85
2022-12-31T01:23:47.038Z,11.05
2022-12-31T01:26:15.473Z,8.95
2022-12-31T01:28:43.238Z,9.45
2022-12-31T01:31:14.816Z,9.25
2022-12-31T01:33:42.691Z,8.15
2022-12-31T01:36:12.011Z,9.88
2022-12-31T01:38:39.501Z,12.10
2022-12-31T01:41:26.014Z,9.90
2022-12-31T01:44:03.717Z,9.32
2022-12-31T01:46:38.494Z,10.07
2022-12-31T01:49:10.688Z,8.70
2022-12-31T01:51:38.276Z,9.45
2022-12-31T01:54:07.574Z,9.90
2022-12-31T01:56:35.676Z,8.55
2022-12-31T01:59:05.845Z,10.88
2022-12-31T02:01:33.644Z,9.73
2022-12-31T02:04:02.746Z,7.70
2022-12-31T02:06:31.906Z,9.75
2022-12-31T02:08:59.153Z,11.60
2022-12-31T02:11:31.264Z,7.93
2022-12-31T02:14:02.479Z,9.48
2022-12-31T02:16:32.443Z,8.35
2022-12-31T02:19:11.824Z,10.82
2022-12-31T02:21:38.941Z,6.88
2022-12-31T02:24:21.992Z,9.30
2022-12-31T02:27:00.668Z,8.75
2022-12-31T02:29:42.530Z,8.00
2022-12-31T02:32:14.558Z,8.23
2022-12-31T02:34:51.368Z,9.63
2022-12-31T02:37:20.827Z,7.38
2022-12-31T02:39:48.248Z,8.48
2022-12-31T02:42:15.704Z,7.97
2022-12-31T02:44:43.243Z,8.25
2022-12-31T02:47:13.099Z,8.20
2022-12-31T02:49:59.310Z,8.90
2022-12-31T02:55:16.214Z,7.55
2022-12-31T02:57:46.721Z,7.47
2022-12-31T03:00:33.958Z,8.00
2022-12-31T03:03:02.013Z,6.70
2022-12-31T03:05:33.022Z,7.55
2022-12-31T03:08:00.256Z,7.45
2022-12-31T03:10:28.738Z,7.10
2022-12-31T03:12:55.867Z,7.78
2022-12-31T03:15:30.116Z,6.65
2022-12-31T03:18:00.116Z,7.40
2022-12-31T03:20:48.209Z,7.13
2022-12-31T03:23:16.727Z,7.45
2022-12-31T03:25:44.567Z,6.78
2022-12-31T03:28:13.071Z,8.73
2022-12-31T03:30:41.458Z,7.72
2022-12-31T03:33:09.031Z,7.90
2022-12-31T03:35:37.343Z,7.47
2022-12-31T03:38:04.832Z,6.85
2022-12-31T03:40:34.331Z,9.18
2022-12-31T03:43:01.519Z,6.05
2022-12-31T03:45:28.796Z,8.50
2022-12-31T03:47:56.015Z,7.25
2022-12-31T03:50:23.189Z,8.65
2022-12-31T03:52:50.898Z,8.98
2022-12-31T03:55:18.072Z,8.45
2022-12-31T03:57:45.880Z,7.45
2022-12-31T04:00:14.327Z,7.85
2022-12-31T04:02:41.803Z,7.13
2022-12-31T04:05:09.477Z,6.03
2022-12-31T04:07:36.759Z,7.78
2022-12-31T04:10:05.124Z,6.53
2022-12-31T04:12:32.344Z,5.57
2022-12-31T04:15:00.555Z,13.10
2022-12-31T04:17:27.677Z,10.43
2022-12-31T04:19:54.856Z,5.82
2022-12-31T04:22:22.053Z,6.30
2022-12-31T04:24:49.303Z,6.78
2022-12-31T04:27:16.498Z,6.57
2022-12-31T04:29:43.705Z,5.45
2022-12-31T04:32:10.885Z,6.55
2022-12-31T04:34:38.166Z,6.68
2022-12-31T04:37:05.349Z,4.90
2022-12-31T04:39:32.501Z,6.03
2022-12-31T04:41:59.656Z,5.35
2022-12-31T04:44:27.953Z,5.43
2022-12-31T04:46:56.146Z,5.63
2022-12-31T04:49:23.290Z,8.05
2022-12-31T04:51:50.409Z,6.82
2022-12-31T04:54:17.548Z,6.22
2022-12-31T04:56:44.672Z,4.70
2022-12-31T04:59:12.961Z,6.22
2022-12-31T05:01:40.166Z,5.65
2022-12-31T05:04:07.493Z,5.03
2022-12-31T05:06:34.689Z,6.10
2022-12-31T05:09:04.178Z,6.63
2022-12-31T05:11:31.364Z,5.05
2022-12-31T05:13:58.697Z,5.97
2022-12-31T05:16:25.853Z,5.03
2022-12-31T05:18:53.056Z,6.07
2022-12-31T05:21:21.372Z,4.75
2022-12-31T05:23:48.986Z,5.47
2022-12-31T05:26:16.559Z,5.03
2022-12-31T05:28:43.822Z,4.78
2022-12-31T05:31:13.440Z,5.00
2022-12-31T05:33:40.613Z,5.00
2022-12-31T05:36:07.847Z,7.22
2022-12-31T05:38:35.111Z,4.97
2022-12-31T05:41:03.725Z,8.85
2022-12-31T05:43:31.168Z,6.22
2022-12-31T05:46:00.769Z,4.65
2022-12-31T05:48:28.019Z,5.35
2022-12-31T05:50:55.317Z,6.20
2022-12-31T05:53:22.505Z,5.97
2022-12-31T05:55:49.978Z,4.82
2022-12-31T05:58:18.882Z,4.75
2022-12-31T06:00:46.215Z,5.75
2022-12-31T06:03:13.522Z,4.80
2022-12-31T06:05:41.895Z,4.85
2022-12-31T06:08:09.428Z,7.50
2022-12-31T06:10:36.687Z,4.88
2022-12-31T06:13:04.286Z,4.45
2022-12-31T06:15:31.736Z,7.30
2022-12-31T06:17:58.947Z,5.32
2022-12-31T06:20:26.198Z,4.15
2022-12-31T06:22:53.368Z,4.45
2022-12-31T06:25:20.614Z,4.28
2022-12-31T06:27:48.041Z,5.40
2022-12-31T06:30:15.449Z,4.75
2022-12-31T06:32:42.889Z,4.45
2022-12-31T06:35:10.192Z,4.38
2022-12-31T06:37:37.460Z,5.55
2022-12-31T06:40:04.852Z,5.18
2022-12-31T06:42:32.357Z,4.90
2022-12-31T06:45:00.037Z,4.10
2022-12-31T06:47:27.284Z,4.93
2022-12-31T06:49:54.485Z,5.25
2022-12-31T06:52:22.075Z,3.95
2022-12-31T06:54:49.357Z,4.78
2022-12-31T06:57:16.718Z,5.43
2022-12-31T06:59:44.872Z,5.05
2022-12-31T07:02:17.980Z,3.90
2022-12-31T07:04:50.455Z,4.55
2022-12-31T07:07:20.443Z,6.30
2022-12-31T07:09:55.147Z,5.10
2022-12-31T07:12:22.366Z,4.80
2022-12-31T07:15:00.300Z,7.35
2022-12-31T07:17:36.900Z,7.68
2022-12-31T07:20:14.606Z,6.78
2022-12-31T07:22:42.017Z,9.85
2022-12-31T07:25:13.906Z,7.43
2022-12-31T07:27:59.550Z,6.97
2022-12-31T07:30:26.869Z,6.95
2022-12-31T07:32:59.868Z,8.65
2022-12-31T07:35:42.135Z,7.32
2022-12-31T07:38:30.441Z,6.22
2022-12-31T07:41:09.281Z,6.45
2022-12-31T07:43:43.594Z,7.75
2022-12-31T07:46:19.888Z,6.65
2022-12-31T07:48:47.150Z,6.65
2022-12-31T07:51:14.462Z,6.45
2022-12-31T07:53:41.573Z,7.90
2022-12-31T07:56:09.519Z,8.07
2022-12-31T07:58:48.979Z,8.23
2022-12-31T08:01:17.978Z,19.38
2022-12-31T08:04:03.586Z,16.13
2022-12-31T08:06:49.500Z,9.50
2022-12-31T08:09:22.797Z,8.80
2022-12-31T08:12:00.344Z,11.10
2022-12-31T08:14:28.203Z,8.77
2022-12-31T08:16:55.716Z,11.88
2022-12-31T08:19:28.381Z,11.77
2022-12-31T08:22:14.076Z,12.00
2022-12-31T08:24:42.289Z,9.80
2022-12-31T08:27:20.817Z,7.90
2022-12-31T08:29:54.105Z,9.20
2022-12-31T08:32:36.586Z,9.48
2022-12-31T08:35:07.270Z,10.52
2022-12-31T08:37:39.475Z,10.70
2022-12-31T08:40:06.575Z,13.02
2022-12-31T08:43:12.443Z,10.27
2022-12-31T08:45:47.150Z,9.07
2022-12-31T08:48:19.957Z,8.45
2022-12-31T08:50:47.285Z,8.55
2022-12-31T08:53:14.671Z,9.85
2022-12-31T08:55:43.826Z,12.13
2022-12-31T08:58:21.549Z,7.55
2022-12-31T09:00:50.776Z,11.15
2022-12-31T09:03:29.653Z,8.05
2022-12-31T09:06:03.168Z,8.55
2022-12-31T09:08:54.304Z,8.60
2022-12-31T09:11:30.125Z,9.70
2022-12-31T09:16:36.245Z,9.80
2022-12-31T09:19:03.456Z,7.75
2022-12-31T09:21:32.369Z,8.23
2022-12-31T09:24:04.425Z,7.80
2022-12-31T09:26:40.627Z,9.48
2022-12-31T09:29:19.864Z,11.45
2022-12-31T09:31:52.225Z,8.57
2022-12-31T09:34:36.670Z,9.07
2022-12-31T09:37:06.033Z,8.02
2022-12-31T09:39:33.193Z,8.80
2022-12-31T09:42:12.203Z,11.35
2022-12-31T09:44:45.373Z,8.80
2022-12-31T09:47:24.779Z,7.88
2022-12-31T09:50:04.735Z,6.72
2022-12-31T09:52:50.623Z,9.55
2022-12-31T09:55:20.810Z,9.07
2022-12-31T09:58:04.710Z,6.75
2022-12-31T10:00:36.335Z,8.93
2022-12-31T10:03:18.677Z,9.82
2022-12-31T10:06:02.240Z,8.70
2022-12-31T10:08:32.397Z,8.20
2022-12-31T10:11:03.896Z,6.70
2022-12-31T10:13:36.772Z,8.45
2022-12-31T10:16:22.953Z,8.23
2022-12-31T10:21:28.919Z,7.40
2022-12-31T10:24:01.202Z,9.02
2022-12-31T10:26:52.892Z,9.70
2022-12-31T10:29:41.771Z,11.02
2022-12-31T10:32:20.225Z,7.40
2022-12-31T10:34:53.748Z,6.55
2022-12-31T10:37:24.267Z,9.23
2022-12-31T10:39:54.488Z,19.45
2022-12-31T10:42:21.600Z,10.10
2022-12-31T10:44:51.500Z,11.88
2022-12-31T10:47:24.709Z,13.98
2022-12-31T10:49:51.847Z,14.63
2022-12-31T10:52:41.752Z,12.23
2022-12-31T10:55:25.480Z,10.80
2022-12-31T10:58:05.140Z,12.13
2022-12-31T11:00:36.849Z,11.55
2022-12-31T11:03:36.165Z,8.05
2022-12-31T11:06:38.719Z,11.52
2022-12-31T11:09:34.495Z,10.10
2022-12-31T11:12:14.042Z,7.50
2022-12-31T11:15:07.411Z,7.75
2022-12-31T11:17:42.677Z,8.60
2022-12-31T11:20:23.656Z,12.68
2022-12-31T11:22:50.769Z,9.75
2022-12-31T11:25:30.263Z,9.82
2022-12-31T11:28:03.551Z,11.77
2022-12-31T11:30:40.431Z,12.43
2022-12-31T11:33:26.497Z,9.60
2022-12-31T11:36:04.916Z,9.13
2022-12-31T11:38:38.705Z,7.85
2022-12-31T11:41:29.253Z,8.70
2022-12-31T11:43:59.179Z,8.38
2022-12-31T11:46:43.479Z,7.65
2022-12-31T11:49:23.505Z,11.10
2022-12-31T11:52:09.319Z,12.00
2022-12-31T11:54:47.296Z,8.38
2022-12-31T11:57:18.113Z,7.82
2022-12-31T11:59:45.783Z,8.43
2022-12-31T12:02:24.471Z,8.00
2022-12-31T12:04:52.062Z,11.15
2022-12-31T12:07:19.551Z,9.07
2022-12-31T12:09:46.984Z,7.10
2022-12-31T12:12:14.265Z,7.53
2022-12-31T12:14:42.751Z,7.43
2022-12-31T12:17:18.330Z,7.78
2022-12-31T12:19:47.023Z,6.55
2022-12-31T12:22:19.320Z,7.85
2022-12-31T12:24:56.970Z,7.75
2022-12-31T12:27:25.353Z,10.05
2022-12-31T12:29:52.527Z,7.93
2022-12-31T12:32:21.301Z,11.88
2022-12-31T12:34:50.176Z,10.52
2022-12-31T12:37:23.233Z,7.97
2022-12-31T12:40:19.620Z,7.00
2022-12-31T12:42:47.709Z,6.15
2022-12-31T12:45:19.334Z,8.68
2022-12-31T12:47:47.484Z,7.47
2022-12-31T12:50:16.856Z,8.70
2022-12-31T12:52:44.074Z,9.75
2022-12-31T12:55:46.789Z,5.68
2022-12-31T12:58:18.821Z,9.15
2022-12-31T13:00:52.545Z,5.97
2022-12-31T13:03:20.038Z,7.43
2022-12-31T13:06:06.225Z,6.75
2022-12-31T13:08:36.332Z,6.03
2022-12-31T13:11:03.516Z,8.38
2022-12-31T13:13:36.723Z,7.88
2022-12-31T13:16:11.794Z,6.07
2022-12-31T13:18:54.026Z,12.65
2022-12-31T13:21:30.144Z,6.32
2022-12-31T13:23:59.366Z,7.15
2022-12-31T13:26:36.696Z,7.32
2022-12-31T13:29:05.516Z,5.43
2022-12-31T13:31:35.213Z,7.88
2022-12-31T13:34:09.452Z,6.97
2022-12-31T13:36:39.446Z,5.57
2022-12-31T13:39:08.686Z,8.70
2022-12-31T13:41:58.877Z,6.93
2022-12-31T13:44:37.036Z,7.65
2022-12-31T13:47:10.934Z,5.90
2022-12-31T13:49:41.062Z,7.20
2022-12-31T13:52:08.226Z,8.10
2022-12-31T13:54:54.514Z,7.80
2022-12-31T13:59:51.241Z,6.85
2022-12-31T14:02:33.094Z,6.20
2022-12-31T14:05:03.954Z,9.57
2022-12-31T14:07:43.639Z,5.95
2022-12-31T14:10:13.792Z,6.47
2022-12-31T14:12:46.760Z,6.93
2022-12-31T14:15:34.181Z,6.10
2022-12-31T14:18:01.331Z,6.28
2022-12-31T14:20:40.559Z,5.15
2022-12-31T14:23:20.294Z,7.22
2022-12-31T14:25:56.846Z,7.40
2022-12-31T14:28:30.487Z,6.32
2022-12-31T14:31:00.844Z,7.90
2022-12-31T14:33:46.766Z,6.90
2022-12-31T14:36:35.213Z,5.07
2022-12-31T14:39:10.110Z,7.68
2022-12-31T14:41:46.506Z,5.77
2022-12-31T14:44:28.751Z,5.75
2022-12-31T14:47:14.396Z,8.75
2022-12-31T14:50:00.049Z,6.88
2022-12-31T14:52:34.597Z,7.07
2022-12-31T14:55:10.829Z,7.00
2022-12-31T14:58:09.734Z,6.53
2022-12-31T15:00:38.319Z,6.90
2022-12-31T15:03:07.328Z,6.63
2022-12-31T15:05:35.950Z,11.10
2022-12-31T15:08:10.767Z,8.35
2022-12-31T15:10:46.213Z,6.78
2022-12-31T15:13:21.349Z,7.15
2022-12-31T15:16:01.052Z,7.78
2022-12-31T15:18:46.952Z,8.63
2022-12-31T15:21:26.081Z,8.80
2022-12-31T15:23:53.456Z,8.27
2022-12-31T15:26:23.026Z,11.13
2022-12-31T15:29:11.876Z,8.45
2022-12-31T15:31:45.891Z,12.68
2022-12-31T15:34:30.594Z,9.95
2022-12-31T15:36:59.120Z,7.95
2022-12-31T15:39:46.497Z,12.90
2022-12-31T15:42:38.669Z,10.75
2022-12-31T15:45:08.560Z,8.02
2022-12-31T15:47:40.923Z,14.00
2022-12-31T15:50:28.443Z,15.10
2022-12-31T15:53:03.084Z,11.80
2022-12-31T15:55:34.743Z,10.32
2022-12-31T15:58:05.758Z,13.95
2022-12-31T16:00:44.723Z,12.48
2022-12-31T16:03:20.249Z,11.70
2022-12-31T16:05:47.535Z,9.40
2022-12-31T16:08:18.273Z,10.60
2022-12-31T16:10:45.425Z,10.68
2022-12-31T16:13:19.451Z,15.43
2022-12-31T16:15:49.384Z,14.00
2022-12-31T16:18:22.622Z,14.02
2022-12-31T16:20:51.764Z,13.05
2022-12-31T16:23:23.476Z,11.68
2022-12-31T16:25:51.957Z,10.60
2022-12-31T16:28:20.601Z,14.27
2022-12-31T16:30:55.364Z,16.05
2022-12-31T16:33:23.253Z,14.50
2022-12-31T16:36:01.194Z,13.70
2022-12-31T16:38:38.017Z,14.07
2022-12-31T16:41:16.556Z,13.30
2022-12-31T16:43:44.068Z,16.13
2022-12-31T16:46:19.438Z,21.98
2022-12-31T16:48:47.559Z,20.15
2022-12-31T16:51:18.376Z,18.88
2022-12-31T16:53:45.794Z,14.35
2022-12-31T16:56:20.571Z,16.92
2022-12-31T16:58:47.827Z,13.88
2022-12-31T17:01:19.558Z,19.02
2022-12-31T17:03:49.398Z,15.25
2022-12-31T17:06:18.055Z,14.35
2022-12-31T17:08:46.738Z,15.52
2022-12-31T17:11:25.769Z,15.25
2022-12-31T17:13:54.371Z,15.38
2022-12-31T17:16:21.787Z,15.00
2022-12-31T17:18:49.188Z,12.85
2022-12-31T17:21:16.360Z,16.65
2022-12-31T17:23:50.154Z,22.13
2022-12-31T17:26:23.095Z,15.68
2022-12-31T17:28:51.597Z,12.10
2022-12-31T17:31:29.977Z,16.77
2022-12-31T17:34:05.758Z,15.40
2022-12-31T17:39:23.421Z,16.13
2022-12-31T17:41:52.034Z,14.27
2022-12-31T17:44:22.010Z,17.25
2022-12-31T17:46:50.164Z,18.35
2022-12-31T17:49:17.444Z,13.18
2022-12-31T17:51:47.752Z,17.20
2022-12-31T17:54:18.837Z,14.70
2022-12-31T17:56:46.390Z,16.92
2022-12-31T17:59:18.101Z,12.27
2022-12-31T18:01:45.616Z,14.13
2022-12-31T18:04:21.418Z,15.57
2022-12-31T18:06:50.760Z,12.65
2022-12-31T18:09:18.142Z,14.70
2022-12-31T18:11:46.183Z,16.70
2022-12-31T18:14:17.061Z,12.80
2022-12-31T18:16:44.489Z,16.00
2022-12-31T18:19:37.807Z,15.40
2022-12-31T18:22:01.695Z,17.65
2022-12-31T18:24:28.838Z,19.05
2022-12-31T18:26:56.011Z,15.40
2022-12-31T18:29:23.263Z,15.55
2022-12-31T18:31:50.899Z,14.63
2022-12-31T18:34:18.544Z,18.60
2022-12-31T18:36:46.215Z,14.38
2022-12-31T18:39:13.506Z,17.25
2022-12-31T18:41:45.876Z,15.32
2022-12-31T18:44:14.908Z,16.98
2022-12-31T18:46:42.745Z,16.23
2022-12-31T18:49:10.294Z,16.88
2022-12-31T18:51:37.611Z,16.70
2022-12-31T18:54:05.716Z,16.35
2022-12-31T18:56:32.894Z,16.58
2022-12-31T18:59:00.291Z,18.10
2022-12-31T19:01:32.452Z,22.25
2022-12-31T19:04:01.048Z,28.08
2022-12-31T19:06:28.795Z,27.80
2022-12-31T19:08:55.965Z,30.02
2022-12-31T19:11:23.877Z,32.03
2022-12-31T19:13:51.442Z,33.67
2022-12-31T19:16:18.690Z,30.75
2022-12-31T19:18:47.519Z,31.55
2022-12-31T19:21:18.944Z,30.17
2022-12-31T19:23:46.624Z,26.80
2022-12-31T19:26:18.505Z,26.90
2022-12-31T19:28:46.356Z,24.67
2022-12-31T19:31:13.664Z,18.58
2022-12-31T19:33:41.098Z,19.08
2022-12-31T19:36:14.314Z,16.52
2022-12-31T19:38:41.585Z,16.27
2022-12-31T19:41:14.059Z,14.75
2022-12-31T19:43:41.216Z,13.95
2022-12-31T19:46:11.842Z,15.55
2022-12-31T19:48:39.120Z,14.30
2022-12-31T19:51:08.804Z,17.83
2022-12-31T19:53:36.294Z,18.10
2022-12-31T19:56:03.590Z,20.33
2022-12-31T19:58:30.776Z,20.77
2022-12-31T20:01:02.687Z,18.17
2022-12-31T20:03:31.677Z,20.05
2022-12-31T20:06:03.112Z,17.42
2022-12-31T20:08:30.322Z,16.95
2022-12-31T20:10:59.289Z,18.30
2022-12-31T20:13:27.442Z,18.75
2022-12-31T20:15:54.801Z,17.75
2022-12-31T20:18:23.143Z,17.38
2022-12-31T20:20:55.592Z,18.63
2022-12-31T20:23:23.244Z,19.63
2022-12-31T20:26:00.362Z,21.77
2022-12-31T20:28:27.893Z,17.23
2022-12-31T20:30:55.217Z,20.15
2022-12-31T20:33:22.642Z,17.80
2022-12-31T20:35:49.909Z,19.30
2022-12-31T20:38:17.112Z,18.42
2022-12-31T20:40:46.907Z,18.38
2022-12-31T20:43:14.478Z,19.35
2022-12-31T20:45:42.162Z,17.35
2022-12-31T20:48:09.532Z,16.05
2022-12-31T20:50:36.646Z,16.85
2022-12-31T20:53:03.952Z,17.27
2022-12-31T20:55:32.203Z,17.35
2022-12-31T20:58:00.485Z,16.85
2022-12-31T21:00:27.673Z,16.70
2022-12-31T21:03:06.513Z,17.63
2022-12-31T21:05:37.973Z,18.00
2022-12-31T21:08:05.385Z,18.15
2022-12-31T21:10:33.591Z,16.77
2022-12-31T21:13:00.756Z,16.80
2022-12-31T21:15:28.148Z,13.85
2022-12-31T21:17:55.659Z,17.02
2022-12-31T21:20:22.859Z,15.07
2022-12-31T21:22:49.997Z,15.77
2022-12-31T21:25:17.166Z,14.50
2022-12-31T21:27:44.322Z,16.27
2022-12-31T21:30:20.184Z,14.60
2022-12-31T21:32:47.757Z,14.43
2022-12-31T21:38:02.832Z,14.85
2022-12-31T21:40:30.574Z,14.25
2022-12-31T21:42:57.830Z,15.68
2022-12-31T21:45:25.420Z,15.10
2022-12-31T21:48:11.387Z,14.63
2022-12-31T21:50:38.514Z,14.68
2022-12-31T21:53:05.724Z,16.20
2022-12-31T21:55:51.631Z,15.23
2022-12-31T21:58:27.688Z,15.13
2022-12-31T22:01:14.626Z,20.48
2022-12-31T22:03:42.080Z,15.07
2022-12-31T22:06:12.464Z,17.42
2022-12-31T22:08:40.515Z,16.30
2022-12-31T22:11:08.081Z,15.80
2022-12-31T22:13:36.115Z,15.98
2022-12-31T22:16:05.830Z,18.27
2022-12-31T22:18:35.009Z,17.00
2022-12-31T22:21:10.848Z,18.30
2022-12-31T22:23:43.120Z,19.15
2022-12-31T22:26:12.765Z,16.50
2022-12-31T22:28:40.612Z,14.07
2022-12-31T22:31:13.906Z,14.82
2022-12-31T22:33:41.209Z,14.80
2022-12-31T22:36:10.952Z,14.13
2022-12-31T22:38:38.349Z,17.23
2022-12-31T22:41:09.982Z,19.20
2022-12-31T22:43:38.867Z,15.20
2022-12-31T22:46:07.181Z,13.95
2022-12-31T22:48:34.447Z,14.95
2022-12-31T22:51:01.564Z,14.70
2022-12-31T22:53:28.673Z,15.52
2022-12-31T22:55:56.167Z,14.88
2022-12-31T22:58:24.338Z,14.88
2022-12-31T23:00:51.513Z,14.05
2022-12-31T23:03:19.049Z,14.80
2022-12-31T23:05:48.104Z,18.05
2022-12-31T23:08:22.306Z,14.15
2022-12-31T23:11:00.992Z,14.23
2022-12-31T23:13:51.060Z,13.40
2022-12-31T23:16:38.224Z,15.00
2022-12-31T23:19:24.670Z,14.63
2022-12-31T23:24:38.038Z,13.52
2022-12-31T23:27:05.316Z,15.68
2022-12-31T23:29:32.510Z,17.67
2022-12-31T23:32:00.916Z,13.48
2022-12-31T23:34:28.084Z,15.82
2022-12-31T23:36:55.315Z,15.40
2022-12-31T23:39:22.483Z,14.93
2022-12-31T23:41:49.653Z,21.92
2022-12-31T23:44:16.801Z,14.70
2022-12-31T23:46:44.761Z,16.73
2022-12-31T23:49:12.639Z,15.35
2022-12-31T23:51:40.319Z,16.10
2022-12-31T23:54:07.717Z,13.98
2022-12-31T23:56:34.898Z,15.65
2022-12-31T23:59:02.094Z,15.45
